KRRL/RRL METAR and TAF weather

Enter ICAO airport designator
Station Type Date Time Source
KRRL METAR 2021/08/05 05:15 UTC NOAA

KRRL 050515Z AUTO 00000KT 7SM CLR 15/15 A3007 RMK AO2 T01500150 TSNO


Station Type Date Time Source
KRRL Decoded METAR 2021/08/05 05:15 UTC NOAA

Merrill, Merrill Municipal Airport, WI, United States (KRRL) 45-11N 089-42W
Aug 05, 2021 - 01:15 AM EDT / 2021.08.05 0515 UTC
Wind: Calm:0
Visibility: 7 mile(s):0
Sky conditions: clear
Temperature: 59.0 F (15.0 C)
Dew Point: 59.0 F (15.0 C)
Relative Humidity: 100%
Pressure (altimeter): 30.07 in. Hg (1018 hPa)
ob: KRRL 050515Z AUTO 00000KT 7SM CLR 15/15 A3007 RMK AO2 T01500150 TSNO
cycle: 5

Station Type Date Time Source
KRRL TAF UTC NOAA

Error!

Example: see airport list